createdAt,value
2022-08-17T00:01:56.837Z,-23810.38
2022-08-17T00:04:00.874Z,-23812.09
2022-08-17T00:06:07.149Z,-23810.22
2022-08-17T00:08:10.463Z,-23805.81
2022-08-17T00:10:13.266Z,-23807.69
2022-08-17T00:12:51.162Z,-23804.72
2022-08-17T00:14:39.476Z,-23807.06
2022-08-17T00:16:56.408Z,-23808.81
2022-08-17T00:19:08.430Z,-23805.81
2022-08-17T00:21:12.745Z,-23805.81
2022-08-17T00:23:18.537Z,-23806.13
2022-08-17T00:25:21.242Z,-23807.06
2022-08-17T00:27:24.038Z,-23802.06
2022-08-17T00:29:26.728Z,-23804.56
2022-08-17T00:31:29.499Z,-23800.47
2022-08-17T00:33:33.148Z,-23799.22
2022-08-17T00:35:37.339Z,-23799.84
2022-08-17T00:37:40.282Z,-23797.03
2022-08-17T00:39:42.974Z,-23797.34
2022-08-17T00:41:45.775Z,-23796.56
2022-08-17T00:43:50.930Z,-23796.41
2022-08-17T00:45:53.912Z,-23796.56
2022-08-17T00:47:56.602Z,-23792.00
2022-08-17T00:49:59.460Z,-23788.72
2022-08-17T00:52:12.164Z,-23787.75
2022-08-17T00:54:19.686Z,-23788.25
2022-08-17T00:56:35.473Z,-23788.25
2022-08-17T00:58:39.218Z,-23786.97
2022-08-17T01:00:45.110Z,-23786.81
2022-08-17T01:02:49.441Z,-23784.78
2022-08-17T01:04:54.956Z,-23786.50
2022-08-17T01:06:59.227Z,-23786.03
2022-08-17T01:09:04.487Z,-23787.44
2022-08-17T01:11:07.935Z,-23786.97
2022-08-17T01:13:11.167Z,-23782.59
2022-08-17T01:15:13.887Z,-23781.97
2022-08-17T01:17:16.661Z,-23785.09
2022-08-17T01:19:22.059Z,-23787.44
2022-08-17T01:21:32.936Z,-23786.97
2022-08-17T01:23:37.907Z,-23784.16
2022-08-17T01:25:41.466Z,-23785.72
2022-08-17T01:27:44.514Z,-23783.53
2022-08-17T01:29:50.731Z,-23785.25
2022-08-17T01:31:56.151Z,-23785.09
2022-08-17T01:34:01.910Z,-23782.13
2022-08-17T01:36:06.860Z,-23783.22
2022-08-17T01:38:10.298Z,-23782.13
2022-08-17T01:40:19.660Z,-23779.13
2022-08-17T01:42:27.817Z,-23780.22
2022-08-17T01:44:30.538Z,-23779.28
2022-08-17T01:46:36.113Z,-23779.75
2022-08-17T01:48:39.401Z,-23781.97
2022-08-17T01:50:44.449Z,-23778.19
2022-08-17T01:52:54.103Z,-23773.63
2022-08-17T01:54:57.469Z,-23771.59
2022-08-17T01:57:01.449Z,-23773.47
2022-08-17T01:59:04.946Z,-23772.53
2022-08-17T02:01:09.709Z,-23774.09
2022-08-17T02:03:12.956Z,-23775.03
2022-08-17T02:05:15.777Z,-23775.50
2022-08-17T02:07:19.093Z,-23775.03
2022-08-17T02:09:30.267Z,-23775.81
2022-08-17T02:11:34.591Z,-23773.00
2022-08-17T02:13:38.563Z,-23772.69
2022-08-17T02:15:41.420Z,-23773.47
2022-08-17T02:17:44.219Z,-23772.84
2022-08-17T02:19:46.842Z,-23773.63
2022-08-17T02:21:54.451Z,-23775.19
2022-08-17T02:23:57.266Z,-23776.63
2022-08-17T02:26:01.302Z,-23776.63
2022-08-17T02:28:05.625Z,-23778.50
2022-08-17T02:30:59.028Z,-23777.56
2022-08-17T02:32:36.031Z,-23776.31
2022-08-17T02:34:38.738Z,-23776.47
2022-08-17T02:36:41.573Z,-23777.41
2022-08-17T02:38:44.770Z,-23774.72
2022-08-17T02:40:47.533Z,-23774.88
2022-08-17T02:42:50.270Z,-23777.09
2022-08-17T02:44:53.048Z,-23778.50
2022-08-17T02:46:57.097Z,-23774.25
2022-08-17T02:48:59.887Z,-23774.72
2022-08-17T02:51:03.876Z,-23773.94
2022-08-17T02:53:07.609Z,-23773.94
2022-08-17T02:55:13.672Z,-23774.09
2022-08-17T02:57:16.407Z,-23771.59
2022-08-17T02:59:19.032Z,-23771.91
2022-08-17T03:01:21.758Z,-23773.78
2022-08-17T03:03:25.918Z,-23772.69
2022-08-17T03:05:31.240Z,-23773.00
2022-08-17T03:07:33.935Z,-23772.22
2022-08-17T03:09:36.653Z,-23773.78
2022-08-17T03:11:39.375Z,-23773.78
2022-08-17T03:13:42.067Z,-23773.78
2022-08-17T03:15:47.039Z,-23774.09
2022-08-17T03:17:50.857Z,-23772.69
2022-08-17T03:19:55.039Z,-23773.78
2022-08-17T03:21:59.368Z,-23773.47
2022-08-17T03:24:02.098Z,-23774.09
2022-08-17T03:26:15.283Z,-23775.03
2022-08-17T03:28:18.320Z,-23774.72
2022-08-17T03:30:22.352Z,-23775.34
2022-08-17T03:32:25.053Z,-23774.25
2022-08-17T03:34:27.738Z,-23772.53
2022-08-17T03:36:31.721Z,-23770.16
2022-08-17T03:38:39.364Z,-23772.53
2022-08-17T03:40:56.464Z,-23772.53
2022-08-17T03:43:05.759Z,-23773.78
2022-08-17T03:45:15.535Z,-23773.47
2022-08-17T03:47:36.123Z,-23774.56
2022-08-17T03:49:56.611Z,-23774.09
2022-08-17T03:52:18.293Z,-23773.78
2022-08-17T03:54:38.431Z,-23774.72
2022-08-17T03:56:44.731Z,-23774.41
2022-08-17T03:58:47.833Z,-23770.66
2022-08-17T04:00:51.654Z,-23769.53
2022-08-17T04:02:54.585Z,-23768.28
2022-08-17T04:04:57.897Z,-23767.97
2022-08-17T04:07:01.886Z,-23766.56
2022-08-17T04:09:05.212Z,-23764.84
2022-08-17T04:11:07.853Z,-23763.41
2022-08-17T04:13:11.205Z,-23762.31
2022-08-17T04:15:14.056Z,-23763.75
2022-08-17T04:17:16.796Z,-23762.47
2022-08-17T04:19:21.180Z,-23763.41
2022-08-17T04:21:24.422Z,-23764.03
2022-08-17T04:23:32.887Z,-23763.25
2022-08-17T04:25:39.397Z,-23765.47
2022-08-17T04:27:42.090Z,-23765.63
2022-08-17T04:29:44.750Z,-23765.31
2022-08-17T04:31:58.473Z,-23766.56
2022-08-17T04:34:01.122Z,-23767.34
2022-08-17T04:36:05.462Z,-23770.97
2022-08-17T04:38:10.128Z,-23770.00
2022-08-17T04:40:31.948Z,-23770.81
2022-08-17T04:42:34.665Z,-23770.34
2022-08-17T04:44:38.180Z,-23769.69
2022-08-17T04:46:41.045Z,-23769.69
2022-08-17T04:48:45.813Z,-23767.19
2022-08-17T04:50:50.570Z,-23767.19
2022-08-17T04:52:53.276Z,-23769.88
2022-08-17T04:54:55.920Z,-23774.41
2022-08-17T04:56:59.860Z,-23777.25
2022-08-17T04:59:05.812Z,-23777.88
2022-08-17T05:01:08.842Z,-23777.72
2022-08-17T05:03:11.615Z,-23777.88
2022-08-17T05:05:19.847Z,-23781.34
2022-08-17T05:07:26.224Z,-23783.22
2022-08-17T05:09:31.249Z,-23787.63
2022-08-17T05:11:33.888Z,-23786.34
2022-08-17T05:13:37.945Z,-23789.81
2022-08-17T05:15:44.977Z,-23789.19
2022-08-17T05:17:47.996Z,-23781.34
2022-08-17T05:19:52.094Z,-23779.13
2022-08-17T05:21:54.913Z,-23774.25
2022-08-17T05:23:58.470Z,-23777.72
2022-08-17T05:26:02.274Z,-23776.47
2022-08-17T05:28:06.335Z,-23778.50
2022-08-17T05:30:11.526Z,-23778.97
2022-08-17T05:32:39.084Z,-23770.66
2022-08-17T05:34:38.153Z,-23774.41
2022-08-17T05:36:43.981Z,-23774.88
2022-08-17T05:38:47.051Z,-23774.09
2022-08-17T05:40:49.789Z,-23778.81
2022-08-17T05:42:53.354Z,-23783.22
2022-08-17T05:44:58.512Z,-23788.88
2022-08-17T05:47:03.141Z,-23787.75
2022-08-17T05:49:08.866Z,-23789.50
2022-08-17T05:51:52.468Z,-23797.19
2022-08-17T05:54:05.947Z,-23804.72
2022-08-17T05:56:29.492Z,-23809.91
2022-08-17T05:58:38.729Z,-23810.69
2022-08-17T06:00:51.983Z,-23819.94
2022-08-17T06:03:08.243Z,-23829.03
2022-08-17T06:05:18.706Z,-23839.53
2022-08-17T06:07:27.274Z,-23842.81
2022-08-17T06:09:39.720Z,-23830.59
2022-08-17T06:11:48.020Z,-23833.28
2022-08-17T06:14:19.599Z,-23825.91
2022-08-17T06:16:34.098Z,-23836.09
2022-08-17T06:18:46.913Z,-23843.63
2022-08-17T06:20:54.557Z,-23835.00
2022-08-17T06:23:05.882Z,-23848.78
2022-08-17T06:25:16.552Z,-23851.28
2022-08-17T06:27:24.620Z,-23842.81
2022-08-17T06:29:38.364Z,-23851.91
2022-08-17T06:31:42.240Z,-23845.03
2022-08-17T06:33:47.558Z,-23855.06
2022-08-17T06:36:09.187Z,-23866.00
2022-08-17T06:38:37.630Z,-23882.44
2022-08-17T06:41:01.298Z,-23899.34
2022-08-17T06:43:20.668Z,-23884.94
2022-08-17T06:45:28.721Z,-23914.81
2022-08-17T06:47:36.727Z,-23922.63
2022-08-17T06:49:54.670Z,-23927.63
2022-08-17T06:52:04.417Z,-23922.00
2022-08-17T06:54:12.000Z,-23951.84
2022-08-17T06:56:24.868Z,-23950.75
2022-08-17T06:58:48.264Z,-23929.50
2022-08-17T07:00:59.094Z,-23921.53
2022-08-17T07:03:11.135Z,-23962.94
2022-08-17T07:05:18.379Z,-23982.25
2022-08-17T07:07:40.556Z,-23984.59
2022-08-17T07:09:43.955Z,-23974.94
2022-08-17T07:11:51.826Z,-23981.63
2022-08-17T07:14:04.303Z,-23986.31
2022-08-17T07:16:15.470Z,-24005.16
2022-08-17T07:18:18.169Z,-23990.22
2022-08-17T07:20:23.405Z,-23961.66
2022-08-17T07:22:57.493Z,-23978.22
2022-08-17T07:25:00.576Z,-23995.66
2022-08-17T07:27:09.311Z,-24003.47
2022-08-17T07:29:17.346Z,-23997.84
2022-08-17T07:31:22.645Z,-23986.78
2022-08-17T07:33:27.490Z,-23985.84
2022-08-17T07:35:41.451Z,-23977.28
2022-08-17T07:37:53.343Z,-24013.13
2022-08-17T07:39:59.490Z,-24021.69
2022-08-17T07:42:19.813Z,-24038.34
2022-08-17T07:44:22.504Z,-24015.59
2022-08-17T07:46:45.387Z,-24049.84
2022-08-17T07:48:51.719Z,-24036.78
2022-08-17T07:51:00.111Z,-23992.41
2022-08-17T07:53:17.656Z,-23982.88
2022-08-17T07:55:29.282Z,-23986.00
2022-08-17T07:57:35.497Z,-24010.63
2022-08-17T07:59:40.705Z,-24017.78
2022-08-17T08:01:48.989Z,-24021.06
2022-08-17T08:03:59.501Z,-24038.94
2022-08-17T08:06:04.533Z,-24017.31
2022-08-17T08:08:23.115Z,-23989.13
2022-08-17T08:10:33.475Z,-23987.25
2022-08-17T08:12:38.136Z,-23983.19
2022-08-17T08:14:42.219Z,-23980.06
2022-08-17T08:16:58.971Z,-23986.31
2022-08-17T08:19:02.820Z,-23968.84
2022-08-17T08:21:10.357Z,-23970.72
2022-08-17T08:23:19.714Z,-23969.16
2022-08-17T08:25:28.867Z,-23966.50
2022-08-17T08:27:41.742Z,-23960.59
2022-08-17T08:29:53.920Z,-23946.38
2022-08-17T08:32:04.062Z,-23927.94
2022-08-17T08:34:49.731Z,-23935.44
2022-08-17T08:37:12.770Z,-23933.41
2022-08-17T08:39:21.622Z,-23934.97
2022-08-17T08:41:36.696Z,-23931.84
2022-08-17T08:43:52.866Z,-23931.06
2022-08-17T08:46:04.770Z,-23934.34
2022-08-17T08:48:46.088Z,-23933.41
2022-08-17T08:50:53.577Z,-23938.25
2022-08-17T08:53:18.799Z,-23938.41
2022-08-17T08:55:26.050Z,-23924.84
2022-08-17T08:57:34.847Z,-23928.88
2022-08-17T08:59:44.556Z,-23926.09
2022-08-17T09:02:02.229Z,-23928.28
2022-08-17T09:04:25.063Z,-23919.19
2022-08-17T09:06:44.297Z,-23922.31
2022-08-17T09:09:02.858Z,-23916.22
2022-08-17T09:11:12.244Z,-23916.84
2022-08-17T09:13:23.295Z,-23923.41
2022-08-17T09:15:28.938Z,-23924.22
2022-08-17T09:17:37.408Z,-23923.25
2022-08-17T09:19:45.594Z,-23920.44
2022-08-17T09:21:53.514Z,-23926.38
2022-08-17T09:24:05.508Z,-23929.34
2022-08-17T09:26:12.901Z,-23922.31
2022-08-17T09:28:20.258Z,-23919.81
2022-08-17T09:30:23.714Z,-23921.22
2022-08-17T09:32:32.458Z,-23912.78
2022-08-17T09:34:40.223Z,-23912.00
2022-08-17T09:37:02.811Z,-23907.78
2022-08-17T09:39:12.115Z,-23906.06
2022-08-17T09:41:18.697Z,-23906.53
2022-08-17T09:43:31.607Z,-23909.03
2022-08-17T09:45:40.032Z,-23913.25
2022-08-17T09:47:50.724Z,-23910.44
2022-08-17T09:49:58.627Z,-23916.69
2022-08-17T09:52:07.853Z,-23925.13
2022-08-17T09:54:37.999Z,-23925.13
2022-08-17T09:57:06.008Z,-23931.38
2022-08-17T09:59:38.188Z,-23934.50
2022-08-17T10:01:50.463Z,-23947.00
2022-08-17T10:04:12.412Z,-23965.41
2022-08-17T10:06:23.250Z,-23986.94
2022-08-17T10:08:35.133Z,-23982.56
2022-08-17T10:10:52.443Z,-23964.94
2022-08-17T10:13:06.194Z,-23971.34
2022-08-17T10:15:22.906Z,-23974.31
2022-08-17T10:17:34.029Z,-23966.66
2022-08-17T10:19:44.177Z,-23964.47
2022-08-17T10:22:14.999Z,-23966.66
2022-08-17T10:25:21.638Z,-23955.91
2022-08-17T10:27:20.179Z,-23951.53
2022-08-17T10:29:29.020Z,-23948.72
2022-08-17T10:31:39.788Z,-23951.84
2022-08-17T10:33:54.074Z,-23948.25
2022-08-17T10:36:03.644Z,-23931.69
2022-08-17T10:38:25.457Z,-23943.56
2022-08-17T10:40:38.271Z,-23940.44
2022-08-17T10:42:51.130Z,-23955.44
2022-08-17T10:45:02.609Z,-23964.16
2022-08-17T10:47:10.454Z,-23950.59
2022-08-17T10:49:33.852Z,-23933.41
2022-08-17T10:51:39.376Z,-23932.31
2022-08-17T10:53:52.533Z,-23932.63
2022-08-17T10:56:21.701Z,-23933.88
2022-08-17T10:58:28.530Z,-23935.13
2022-08-17T11:00:59.539Z,-23943.88
2022-08-17T11:03:03.086Z,-23947.00
2022-08-17T11:05:19.597Z,-23948.41
2022-08-17T11:07:43.892Z,-23937.00
2022-08-17T11:10:05.291Z,-23935.44
2022-08-17T11:12:28.168Z,-23937.00
2022-08-17T11:14:51.475Z,-23934.34
2022-08-17T11:17:11.244Z,-23926.88
2022-08-17T11:19:45.653Z,-23925.59
2022-08-17T11:22:10.508Z,-23933.41
2022-08-17T11:24:19.970Z,-23926.38
2022-08-17T11:26:26.887Z,-23924.22
2022-08-17T11:28:34.448Z,-23930.13
2022-08-17T11:30:51.449Z,-23918.72
2022-08-17T11:32:55.695Z,-23911.38
2022-08-17T11:35:11.931Z,-23915.91
2022-08-17T11:37:40.643Z,-23913.72
2022-08-17T11:40:06.486Z,-23901.38
2022-08-17T11:42:26.537Z,-23912.63
2022-08-17T11:44:42.674Z,-23899.81
2022-08-17T11:47:18.179Z,-23898.41
2022-08-17T11:49:48.104Z,-23901.06
2022-08-17T11:52:35.244Z,-23902.94
2022-08-17T11:54:42.357Z,-23900.13
2022-08-17T11:56:47.611Z,-23899.19
2022-08-17T11:58:50.311Z,-23902.31
2022-08-17T12:00:58.687Z,-23913.25
2022-08-17T12:03:26.392Z,-23915.75
2022-08-17T12:05:34.082Z,-23918.56
2022-08-17T12:07:43.345Z,-23930.44
2022-08-17T12:09:50.267Z,-23926.38
2022-08-17T12:12:12.909Z,-23929.34
2022-08-17T12:14:32.222Z,-23935.91
2022-08-17T12:16:45.435Z,-23949.34
2022-08-17T12:18:57.470Z,-23944.66
2022-08-17T12:21:23.329Z,-23943.56
2022-08-17T12:23:36.903Z,-23951.53
2022-08-17T12:25:45.368Z,-23955.13
2022-08-17T12:28:05.703Z,-23969.16
2022-08-17T12:30:12.954Z,-23977.59
2022-08-17T12:32:20.068Z,-23969.31
2022-08-17T12:34:27.734Z,-23964.63
2022-08-17T12:36:33.059Z,-23967.28
2022-08-17T12:38:38.434Z,-23976.19
2022-08-17T12:40:41.154Z,-23976.66
2022-08-17T12:42:56.209Z,-23967.13
2022-08-17T12:44:59.353Z,-23974.47
2022-08-17T12:47:07.511Z,-23973.53
2022-08-17T12:49:22.622Z,-23970.72
2022-08-17T12:51:26.677Z,-23976.66
2022-08-17T12:53:32.298Z,-23984.59
2022-08-17T12:55:38.731Z,-23993.34
2022-08-17T12:57:45.004Z,-24005.47
2022-08-17T12:59:52.053Z,-24010.63
2022-08-17T13:01:55.493Z,-24005.00
2022-08-17T13:04:00.647Z,-24014.38
2022-08-17T13:06:06.414Z,-24018.72
2022-08-17T13:08:17.036Z,-24017.47
2022-08-17T13:10:27.405Z,-24013.44
2022-08-17T13:12:35.872Z,-24014.66
2022-08-17T13:14:38.613Z,-24016.53
2022-08-17T13:16:41.357Z,-24029.31
2022-08-17T13:18:47.121Z,-24022.47
2022-08-17T13:20:54.360Z,-24018.72
2022-08-17T13:22:58.964Z,-24024.31
2022-08-17T13:25:08.445Z,-24035.06
2022-08-17T13:27:15.184Z,-24027.13
2022-08-17T13:29:24.363Z,-24020.59
2022-08-17T13:31:52.066Z,-24007.50
2022-08-17T13:34:14.224Z,-24001.75
2022-08-17T13:36:29.967Z,-24023.38
2022-08-17T13:38:43.836Z,-24044.25
2022-08-17T13:40:52.740Z,-24047.50
2022-08-17T13:42:57.218Z,-24049.84
2022-08-17T13:45:00.004Z,-24043.00
2022-08-17T13:47:03.751Z,-24034.13
2022-08-17T13:49:11.694Z,-24032.72
2022-08-17T13:51:28.935Z,-24039.56
2022-08-17T13:53:34.546Z,-24028.22
2022-08-17T13:55:37.247Z,-24038.03
2022-08-17T13:57:46.671Z,-24036.78
2022-08-17T13:59:55.730Z,-24035.84
2022-08-17T14:01:58.836Z,-24031.00
2022-08-17T14:04:04.286Z,-24018.72
2022-08-17T14:06:07.504Z,-24025.41
2022-08-17T14:08:14.067Z,-24033.50
2022-08-17T14:10:18.956Z,-24026.34
2022-08-17T14:12:24.386Z,-24019.97
2022-08-17T14:14:29.156Z,-24031.50
2022-08-17T14:16:31.830Z,-24026.03
2022-08-17T14:18:55.999Z,-24024.16
2022-08-17T14:20:57.386Z,-24032.09
2022-08-17T14:23:00.092Z,-24042.69
2022-08-17T14:25:03.611Z,-24033.97
2022-08-17T14:27:08.977Z,-24035.38
2022-08-17T14:29:15.203Z,-24043.31
2022-08-17T14:31:20.535Z,-24061.34
2022-08-17T14:33:24.758Z,-24064.78
2022-08-17T14:35:29.267Z,-24045.81
2022-08-17T14:37:32.240Z,-24038.19
2022-08-17T14:39:34.976Z,-24046.25
2022-08-17T14:41:38.792Z,-24054.50
2022-08-17T14:43:41.483Z,-24056.69
2022-08-17T14:45:44.488Z,-24057.16
2022-08-17T14:47:48.547Z,-24064.13
2022-08-17T14:49:51.417Z,-24063.22
2022-08-17T14:51:54.055Z,-24049.84
2022-08-17T14:53:57.161Z,-24053.09
2022-08-17T14:56:01.500Z,-24055.13
2022-08-17T14:58:04.962Z,-24054.81
2022-08-17T15:00:09.633Z,-24043.63
2022-08-17T15:02:12.382Z,-24035.84
2022-08-17T15:04:18.557Z,-24031.50
2022-08-17T15:06:22.277Z,-24029.94
2022-08-17T15:08:25.228Z,-24039.25
2022-08-17T15:10:29.294Z,-24040.50
2022-08-17T15:12:34.067Z,-24036.78
2022-08-17T15:14:37.352Z,-24028.38
2022-08-17T15:16:40.224Z,-24030.09
2022-08-17T15:18:42.873Z,-24029.94
2022-08-17T15:20:48.636Z,-24033.66
2022-08-17T15:22:54.945Z,-24037.69
2022-08-17T15:24:57.885Z,-24041.13
2022-08-17T15:27:00.617Z,-24044.69
2022-08-17T15:29:03.291Z,-24042.69
2022-08-17T15:31:06.700Z,-24045.66
2022-08-17T15:33:14.010Z,-24032.56
2022-08-17T15:35:25.133Z,-24032.56
2022-08-17T15:37:32.761Z,-24029.31
2022-08-17T15:39:35.508Z,-24031.34
2022-08-17T15:41:38.234Z,-24031.34
2022-08-17T15:43:40.964Z,-24034.44
2022-08-17T15:45:44.405Z,-24033.66
2022-08-17T15:47:59.478Z,-24033.66
2022-08-17T15:50:05.377Z,-24034.59
2022-08-17T15:52:17.065Z,-24030.56
2022-08-17T15:54:22.700Z,-24028.38
2022-08-17T15:56:27.060Z,-24024.63
2022-08-17T15:58:33.354Z,-24023.69
2022-08-17T16:00:48.286Z,-24023.06
2022-08-17T16:03:45.352Z,-24024.00
2022-08-17T16:05:27.145Z,-24024.00
2022-08-17T16:07:30.238Z,-24017.00
2022-08-17T16:09:34.265Z,-24020.59
2022-08-17T16:11:36.920Z,-24018.41
2022-08-17T16:13:40.610Z,-24019.34
2022-08-17T16:15:43.573Z,-24018.72
2022-08-17T16:17:46.300Z,-24017.78
2022-08-17T16:19:51.330Z,-24017.16
2022-08-17T16:21:54.037Z,-24014.66
2022-08-17T16:24:01.899Z,-24017.47
2022-08-17T16:26:06.210Z,-24013.13
2022-08-17T16:28:08.881Z,-24017.31
2022-08-17T16:30:17.348Z,-24014.97
2022-08-17T16:32:31.315Z,-24017.94
2022-08-17T16:34:34.650Z,-24010.31
2022-08-17T16:36:37.398Z,-24008.75
2022-08-17T16:38:40.069Z,-24010.63
2022-08-17T16:40:42.799Z,-24012.97
2022-08-17T16:42:48.427Z,-24012.34
2022-08-17T16:44:52.073Z,-24013.28
2022-08-17T16:46:54.769Z,-24011.56
2022-08-17T16:48:58.014Z,-24006.56
2022-08-17T16:51:03.592Z,-24007.81
2022-08-17T16:53:10.489Z,-24002.06
2022-08-17T16:55:13.521Z,-23997.22
2022-08-17T16:57:17.511Z,-24002.53
2022-08-17T16:59:31.156Z,-24003.47
2022-08-17T17:01:43.265Z,-24003.47
2022-08-17T17:03:53.124Z,-23999.09
2022-08-17T17:06:07.428Z,-23994.72
2022-08-17T17:08:14.276Z,-23993.34
2022-08-17T17:10:20.888Z,-23988.03
2022-08-17T17:13:01.090Z,-23990.53
2022-08-17T17:14:57.034Z,-23988.81
2022-08-17T17:17:04.167Z,-23991.16
2022-08-17T17:19:11.920Z,-23987.09
2022-08-17T17:21:20.918Z,-23983.81
2022-08-17T17:23:36.018Z,-23978.38
2022-08-17T17:25:44.489Z,-23978.22
2022-08-17T17:28:00.458Z,-23979.16
2022-08-17T17:30:11.382Z,-23974.47
2022-08-17T17:32:21.704Z,-23973.84
2022-08-17T17:34:26.889Z,-23972.75
2022-08-17T17:36:38.108Z,-23975.25
2022-08-17T17:38:48.097Z,-23970.88
2022-08-17T17:40:54.845Z,-23969.00
2022-08-17T17:43:34.802Z,-23968.22
2022-08-17T17:45:38.600Z,-23964.16
2022-08-17T17:47:41.270Z,-23962.59
2022-08-17T17:49:46.344Z,-23960.75
2022-08-17T17:52:10.055Z,-23959.66
2022-08-17T17:54:32.327Z,-23957.47
2022-08-17T17:56:44.683Z,-23955.75
2022-08-17T17:58:59.687Z,-23954.50
2022-08-17T18:01:18.879Z,-23952.16
2022-08-17T18:03:34.608Z,-23950.28
2022-08-17T18:05:53.550Z,-23947.94
2022-08-17T18:08:09.232Z,-23949.50
2022-08-17T18:10:29.528Z,-23946.22
2022-08-17T18:12:41.502Z,-23944.19
2022-08-17T18:14:56.602Z,-23939.03
2022-08-17T18:17:02.128Z,-23940.28
2022-08-17T18:19:07.163Z,-23937.31
2022-08-17T18:21:16.734Z,-23938.09
2022-08-17T18:23:23.140Z,-23933.25
2022-08-17T18:25:43.935Z,-23935.13
2022-08-17T18:27:51.969Z,-23932.78
2022-08-17T18:29:56.483Z,-23930.13
2022-08-17T18:32:24.902Z,-23928.88
2022-08-17T18:34:48.725Z,-23929.03
2022-08-17T18:36:52.646Z,-23927.16
2022-08-17T18:39:11.789Z,-23926.09
2022-08-17T18:41:23.654Z,-23924.22
2022-08-17T18:43:28.808Z,-23919.81
2022-08-17T18:45:50.356Z,-23918.56
2022-08-17T18:47:56.342Z,-23916.53
2022-08-17T18:50:19.561Z,-23915.91
2022-08-17T18:52:25.982Z,-23914.81
2022-08-17T18:54:28.650Z,-23913.25
2022-08-17T18:56:33.824Z,-23916.38
2022-08-17T18:58:37.625Z,-23918.56
2022-08-17T19:00:42.474Z,-23919.03
2022-08-17T19:02:55.704Z,-23916.38
2022-08-17T19:05:07.766Z,-23916.06
2022-08-17T19:07:24.270Z,-23910.44
2022-08-17T19:09:36.784Z,-23909.19
2022-08-17T19:11:40.414Z,-23907.63
2022-08-17T19:13:47.972Z,-23907.94
2022-08-17T19:16:11.752Z,-23906.84
2022-08-17T19:18:22.582Z,-23905.28
2022-08-17T19:20:32.997Z,-23903.56
2022-08-17T19:22:51.771Z,-23903.56
2022-08-17T19:25:03.490Z,-23905.75
2022-08-17T19:27:15.169Z,-23903.88
2022-08-17T19:29:26.798Z,-23903.88
2022-08-17T19:31:32.281Z,-23902.31
2022-08-17T19:33:37.467Z,-23901.06
2022-08-17T19:35:46.346Z,-23898.88
2022-08-17T19:38:02.636Z,-23898.09
2022-08-17T19:40:29.193Z,-23895.75
2022-08-17T19:42:47.646Z,-23893.72
2022-08-17T19:45:00.385Z,-23892.94
2022-08-17T19:47:10.829Z,-23893.72
2022-08-17T19:49:23.100Z,-23892.78
2022-08-17T19:51:45.000Z,-23893.41
2022-08-17T19:54:05.443Z,-23891.06
2022-08-17T19:56:15.933Z,-23888.56
2022-08-17T19:58:29.500Z,-23888.56
2022-08-17T20:00:35.159Z,-23888.09
2022-08-17T20:02:47.662Z,-23888.56
2022-08-17T20:04:54.905Z,-23889.66
2022-08-17T20:07:00.573Z,-23888.56
2022-08-17T20:09:14.953Z,-23891.22
2022-08-17T20:11:25.043Z,-23889.50
2022-08-17T20:13:33.345Z,-23887.31
2022-08-17T20:15:42.269Z,-23888.88
2022-08-17T20:17:48.243Z,-23887.78
2022-08-17T20:19:56.491Z,-23886.06
2022-08-17T20:22:05.062Z,-23884.94
2022-08-17T20:24:21.569Z,-23882.59
2022-08-17T20:26:28.067Z,-23882.28
2022-08-17T20:28:34.928Z,-23881.03
2022-08-17T20:30:40.794Z,-23879.94
2022-08-17T20:32:53.032Z,-23880.09
2022-08-17T20:35:09.548Z,-23880.72
2022-08-17T20:37:29.209Z,-23882.28
2022-08-17T20:39:37.901Z,-23880.72
2022-08-17T20:42:05.519Z,-23882.91
2022-08-17T20:44:08.218Z,-23886.81
2022-08-17T20:46:22.424Z,-23886.06
2022-08-17T20:48:38.076Z,-23886.81
2022-08-17T20:50:48.106Z,-23882.13
2022-08-17T20:52:54.912Z,-23879.78
2022-08-17T20:54:58.149Z,-23880.72
2022-08-17T20:57:01.386Z,-23878.38
2022-08-17T20:59:05.893Z,-23876.97
2022-08-17T21:01:13.425Z,-23881.81
2022-08-17T21:03:51.219Z,-23875.09
2022-08-17T21:06:00.392Z,-23875.41
2022-08-17T21:08:15.836Z,-23875.72
2022-08-17T21:10:30.864Z,-23876.97
2022-08-17T21:12:43.298Z,-23877.59
2022-08-17T21:14:59.622Z,-23877.59
2022-08-17T21:17:21.066Z,-23881.03
2022-08-17T21:19:49.016Z,-23884.31
2022-08-17T21:22:15.101Z,-23885.13
2022-08-17T21:24:33.178Z,-23886.38
2022-08-17T21:26:50.307Z,-23887.16
2022-08-17T21:29:31.447Z,-23887.94
2022-08-17T21:31:34.860Z,-23889.34
2022-08-17T21:33:39.482Z,-23890.44
2022-08-17T21:35:53.213Z,-23891.69
2022-08-17T21:38:05.301Z,-23893.25
2022-08-17T21:40:23.078Z,-23894.34
2022-08-17T21:42:30.096Z,-23895.13
2022-08-17T21:44:36.155Z,-23895.44
2022-08-17T21:46:42.897Z,-23896.53
2022-08-17T21:48:50.455Z,-23898.56
2022-08-17T21:51:02.152Z,-23893.25
2022-08-17T21:53:08.717Z,-23884.16
2022-08-17T21:55:22.012Z,-23883.53
2022-08-17T21:57:28.888Z,-23880.41
2022-08-17T21:59:34.644Z,-23878.22
2022-08-17T22:01:40.495Z,-23868.50
2022-08-17T22:03:43.452Z,-23860.69
2022-08-17T22:05:47.994Z,-23859.75
2022-08-17T22:07:59.895Z,-23852.53
2022-08-17T22:10:05.958Z,-23848.94
2022-08-17T22:12:11.264Z,-23843.28
2022-08-17T22:14:18.067Z,-23841.56
2022-08-17T22:16:28.578Z,-23837.50
2022-08-17T22:18:33.027Z,-23828.09
2022-08-17T22:20:35.862Z,-23820.25
2022-08-17T22:23:05.174Z,-23819.16
2022-08-17T22:25:21.015Z,-23816.47
2022-08-17T22:27:44.049Z,-23810.22
2022-08-17T22:29:58.564Z,-23808.19
2022-08-17T22:32:01.234Z,-23805.81
2022-08-17T22:34:15.227Z,-23803.31
2022-08-17T22:36:25.030Z,-23798.91
2022-08-17T22:38:33.855Z,-23796.72
2022-08-17T22:40:38.204Z,-23797.19
2022-08-17T22:42:47.244Z,-23795.47
2022-08-17T22:44:53.182Z,-23792.63
2022-08-17T22:47:06.610Z,-23790.91
2022-08-17T22:49:23.105Z,-23785.72
2022-08-17T22:51:29.900Z,-23786.19
2022-08-17T22:53:50.022Z,-23785.72
2022-08-17T22:56:16.425Z,-23782.28
2022-08-17T22:58:41.881Z,-23780.38
2022-08-17T23:00:46.972Z,-23779.44
2022-08-17T23:03:22.570Z,-23780.06
2022-08-17T23:05:26.210Z,-23775.34
2022-08-17T23:07:28.851Z,-23773.78
2022-08-17T23:09:31.554Z,-23773.47
2022-08-17T23:11:48.606Z,-23772.06
2022-08-17T23:13:54.902Z,-23769.69
2022-08-17T23:15:57.604Z,-23771.13
2022-08-17T23:18:04.745Z,-23769.06
2022-08-17T23:20:11.917Z,-23769.06
2022-08-17T23:22:14.868Z,-23763.41
2022-08-17T23:24:24.292Z,-23763.25
2022-08-17T23:26:27.708Z,-23763.09
2022-08-17T23:28:31.716Z,-23757.59
2022-08-17T23:30:39.281Z,-23757.13
2022-08-17T23:32:47.393Z,-23755.88
2022-08-17T23:34:59.084Z,-23754.94
2022-08-17T23:37:02.694Z,-23753.69
2022-08-17T23:39:06.171Z,-23750.53
2022-08-17T23:41:12.735Z,-23753.69
2022-08-17T23:43:23.919Z,-23750.38
2022-08-17T23:45:29.057Z,-23749.13
2022-08-17T23:47:31.727Z,-23752.09
2022-08-17T23:49:36.064Z,-23748.31
2022-08-17T23:51:42.372Z,-23748.31
2022-08-17T23:53:47.667Z,-23747.06
2022-08-17T23:56:03.849Z,-23746.91
2022-08-17T23:58:13.180Z,-23746.59
